Terminal Aerodrome Forecast
Issued by NWS

Home | Current Version | Previous Version | Text Only | Print | Product List | Glossary On
Versions: 1 2 3 4 5 6 7 8 9 10 11 12 13 14 15 16 17 18 19 20 21 22 23 24 25
763
FTUS41 KBTV 072328
TAFSLK
TAF
KSLK 072328Z 0800/0824 24008KT P6SM BKN020
     FM080700 24007KT P6SM VCSH BKN020
     FM081000 24006KT 2SM -SHSN BR BKN010
     FM081400 24010G17KT 2SM -SHSN BR BKN010
     FM082200 25010G19KT 2SM -SHSN BR BKN030=

USA.gov is the U.S. government's official web portal to all federal, state and local government web resources and services.